Search for airport 
image banner adimage banner adimage banner ad
image banner ad

54CA - Riverside Community Hospital

Located in Riverside, United States

ICAO - 54CA, IATA -

Data provided by Airmate  

General information

Coordinates: N33°58'39" W117°22'54"
Elevation is 853 feet MSL.
Magnetic variation is 12° East
View others Airports in California

Operational data

Special qualification required
Current time UTC:
Current local time:
Weather at : KRAL - Riverside Muni ( 6 km )
METAR: KRAL 231353Z 01003KT 10SM CLR 21/11 A2993 RMK AO2 SLP117 T02060106
View NOTAMs / SUP AIP / TFR affecting this airport [VIEW]
Communications frequencies: [VIEW]

Runways:

Airport contact information

Address: Riverside United States

Satellite view of 54CA